createdAt,value
2023-04-02T00:01:36.927Z,9.02
2023-04-02T00:04:23.882Z,9.10
2023-04-02T00:07:33.227Z,9.05
2023-04-02T00:10:27.502Z,9.07
2023-04-02T00:13:16.780Z,9.13
2023-04-02T00:16:06.850Z,8.89
2023-04-02T00:18:57.958Z,8.96
2023-04-02T00:21:46.457Z,8.89
2023-04-02T00:24:33.740Z,8.89
2023-04-02T00:27:20.872Z,8.89
2023-04-02T00:30:08.755Z,8.85
2023-04-02T00:32:55.926Z,8.89
2023-04-02T00:35:43.041Z,8.94
2023-04-02T00:38:34.469Z,8.79
2023-04-02T00:41:27.243Z,8.82
2023-04-02T00:44:21.778Z,8.78
2023-04-02T00:47:24.762Z,8.74
2023-04-02T00:50:15.510Z,8.84
2023-04-02T00:53:12.780Z,8.75
2023-04-02T00:56:00.933Z,8.76
2023-04-02T00:58:53.169Z,8.76
2023-04-02T01:01:42.716Z,8.67
2023-04-02T01:04:36.516Z,8.73
2023-04-02T01:07:47.585Z,8.66
2023-04-02T01:10:46.217Z,8.61
2023-04-02T01:14:06.790Z,8.57
2023-04-02T01:17:35.076Z,8.54
2023-04-02T01:20:25.390Z,8.50
2023-04-02T01:23:19.656Z,8.34
2023-04-02T01:26:35.069Z,8.38
2023-04-02T01:29:27.766Z,8.43
2023-04-02T01:32:18.067Z,8.40
2023-04-02T01:35:05.227Z,8.51
2023-04-02T01:38:03.155Z,8.37
2023-04-02T01:40:55.919Z,8.46
2023-04-02T01:43:51.902Z,8.52
2023-04-02T01:46:42.491Z,8.51
2023-04-02T01:49:28.996Z,8.33
2023-04-02T01:52:25.596Z,8.38
2023-04-02T01:55:15.211Z,8.46
2023-04-02T01:58:03.878Z,8.39
2023-04-02T02:00:56.471Z,8.36
2023-04-02T02:03:44.863Z,8.20
2023-04-02T02:06:32.528Z,8.18
2023-04-02T02:09:26.111Z,8.28
2023-04-02T02:12:14.960Z,8.35
2023-04-02T02:15:02.415Z,8.19
2023-04-02T02:17:50.327Z,8.08
2023-04-02T02:20:37.083Z,8.14
2023-04-02T02:23:23.668Z,8.04
2023-04-02T02:26:13.137Z,7.96
2023-04-02T02:29:06.876Z,7.85
2023-04-02T02:31:56.150Z,8.03
2023-04-02T02:34:54.366Z,8.04
2023-04-02T02:37:46.468Z,8.05
2023-04-02T02:40:43.529Z,8.11
2023-04-02T02:43:32.654Z,8.13
2023-04-02T02:46:23.672Z,8.08
2023-04-02T02:49:16.831Z,7.94
2023-04-02T02:52:03.468Z,8.09
2023-04-02T02:55:02.309Z,8.08
2023-04-02T02:58:06.799Z,8.15
2023-04-02T03:01:00.618Z,8.01
2023-04-02T03:03:52.412Z,8.14
2023-04-02T03:06:40.808Z,8.13
2023-04-02T03:09:54.420Z,7.95
2023-04-02T03:12:56.283Z,7.94
2023-04-02T03:16:11.402Z,7.90
2023-04-02T03:19:30.750Z,7.96
2023-04-02T03:22:35.399Z,8.17
2023-04-02T03:25:33.478Z,7.82
2023-04-02T03:28:26.111Z,8.12
2023-04-02T03:31:27.923Z,8.12
2023-04-02T03:34:28.390Z,8.02
2023-04-02T03:37:26.044Z,8.18
2023-04-02T03:40:21.935Z,8.14
2023-04-02T03:43:23.997Z,8.19
2023-04-02T03:46:27.167Z,8.22
2023-04-02T03:49:41.339Z,8.30
2023-04-02T03:52:29.405Z,8.32
2023-04-02T03:55:29.265Z,8.36
2023-04-02T03:58:26.728Z,8.32
2023-04-02T04:01:35.495Z,8.32
2023-04-02T04:04:27.403Z,8.19
2023-04-02T04:07:38.721Z,8.15
2023-04-02T04:10:27.602Z,7.98
2023-04-02T04:13:18.513Z,8.03
2023-04-02T04:16:09.891Z,7.90
2023-04-02T04:19:23.314Z,7.79
2023-04-02T04:22:30.495Z,7.71
2023-04-02T04:25:29.901Z,7.61
2023-04-02T04:28:29.237Z,7.83
2023-04-02T04:31:26.082Z,7.85
2023-04-02T04:34:46.719Z,7.87
2023-04-02T04:37:40.127Z,7.80
2023-04-02T04:40:50.373Z,7.84
2023-04-02T04:43:54.182Z,7.75
2023-04-02T04:46:47.194Z,7.68
2023-04-02T04:49:52.080Z,7.68
2023-04-02T04:52:41.202Z,7.72
2023-04-02T04:55:43.601Z,7.42
2023-04-02T04:58:42.177Z,7.51
2023-04-02T05:01:52.478Z,7.60
2023-04-02T05:04:44.623Z,7.44
2023-04-02T05:07:49.095Z,7.43
2023-04-02T05:10:54.971Z,7.43
2023-04-02T05:14:07.750Z,7.41
2023-04-02T05:17:04.563Z,7.58
2023-04-02T05:20:16.303Z,7.15
2023-04-02T05:23:30.857Z,7.58
2023-04-02T05:26:28.363Z,7.52
2023-04-02T05:29:22.399Z,7.60
2023-04-02T05:32:15.979Z,7.56
2023-04-02T05:35:07.311Z,7.52
2023-04-02T05:37:56.549Z,7.73
2023-04-02T05:40:47.934Z,7.84
2023-04-02T05:43:39.137Z,7.78
2023-04-02T05:46:30.792Z,7.87
2023-04-02T05:49:26.791Z,7.66
2023-04-02T05:52:24.909Z,7.64
2023-04-02T05:55:12.560Z,7.61
2023-04-02T05:58:34.460Z,7.58
2023-04-02T06:01:33.710Z,7.59
2023-04-02T06:04:29.774Z,7.53
2023-04-02T06:07:24.025Z,7.67
2023-04-02T06:10:25.071Z,7.85
2023-04-02T06:13:19.385Z,7.96
2023-04-02T06:16:06.845Z,8.08
2023-04-02T06:18:55.024Z,8.23
2023-04-02T06:21:46.294Z,8.20
2023-04-02T06:24:37.340Z,8.16
2023-04-02T06:27:26.437Z,8.10
2023-04-02T06:30:21.415Z,8.38
2023-04-02T06:33:15.526Z,8.49
2023-04-02T06:36:06.919Z,8.32
2023-04-02T06:38:59.124Z,8.47
2023-04-02T06:41:46.711Z,8.46
2023-04-02T06:44:52.567Z,8.66
2023-04-02T06:48:01.566Z,8.69
2023-04-02T06:51:07.174Z,8.76
2023-04-02T06:53:55.177Z,8.83
2023-04-02T06:56:47.846Z,8.87
2023-04-02T06:59:40.077Z,9.05
2023-04-02T07:02:36.778Z,9.25
2023-04-02T07:05:25.089Z,9.30
2023-04-02T07:08:13.684Z,9.34
2023-04-02T07:11:00.722Z,9.43
2023-04-02T07:13:49.497Z,9.24
2023-04-02T07:16:36.877Z,9.26
2023-04-02T07:19:23.782Z,9.26
2023-04-02T07:22:19.513Z,9.28
2023-04-02T07:25:10.867Z,9.50
2023-04-02T07:27:57.314Z,9.52
2023-04-02T07:30:44.370Z,9.65
2023-04-02T07:33:31.443Z,9.86
2023-04-02T07:36:23.534Z,9.93
2023-04-02T07:39:10.662Z,9.99
2023-04-02T07:41:59.169Z,10.28
2023-04-02T07:44:45.768Z,10.32
2023-04-02T07:47:32.506Z,10.42
2023-04-02T07:50:19.329Z,10.29
2023-04-02T07:53:07.124Z,10.53
2023-04-02T07:55:53.879Z,10.53
2023-04-02T07:58:42.369Z,10.56
2023-04-02T08:01:29.526Z,10.52
2023-04-02T08:04:18.728Z,10.46
2023-04-02T08:07:05.734Z,10.63
2023-04-02T08:09:52.213Z,10.66
2023-04-02T08:12:38.799Z,10.82
2023-04-02T08:15:25.112Z,10.72
2023-04-02T08:18:12.205Z,10.64
2023-04-02T08:20:59.888Z,10.86
2023-04-02T08:23:46.354Z,10.93
2023-04-02T08:26:33.059Z,11.11
2023-04-02T08:29:20.452Z,11.08
2023-04-02T08:32:07.519Z,11.05
2023-04-02T08:34:53.919Z,11.14
2023-04-02T08:37:41.894Z,11.32
2023-04-02T08:40:39.100Z,11.63
2023-04-02T08:43:44.479Z,11.80
2023-04-02T08:46:37.579Z,11.75
2023-04-02T08:49:36.963Z,12.07
2023-04-02T08:52:31.356Z,12.24
2023-04-02T08:55:35.025Z,12.26
2023-04-02T08:58:41.894Z,12.32
2023-04-02T09:01:48.914Z,12.22
2023-04-02T09:04:36.960Z,12.17
2023-04-02T09:07:24.413Z,12.46
2023-04-02T09:10:16.445Z,12.59
2023-04-02T09:13:06.580Z,12.65
2023-04-02T09:16:01.377Z,12.93
2023-04-02T09:18:50.231Z,12.93
2023-04-02T09:21:43.980Z,13.16
2023-04-02T09:24:30.344Z,12.95
2023-04-02T09:27:29.946Z,12.66
2023-04-02T09:30:31.946Z,12.96
2023-04-02T09:33:19.354Z,13.08
2023-04-02T09:36:06.378Z,12.94
2023-04-02T09:39:20.829Z,13.26
2023-04-02T09:42:28.110Z,13.37
2023-04-02T09:45:21.464Z,13.31
2023-04-02T09:48:27.556Z,13.59
2023-04-02T09:51:18.368Z,13.65
2023-04-02T09:54:04.994Z,13.69
2023-04-02T09:57:03.681Z,13.96
2023-04-02T10:00:25.166Z,14.24
2023-04-02T10:03:25.681Z,14.19
2023-04-02T10:06:16.428Z,14.41
2023-04-02T10:09:33.658Z,14.34
2023-04-02T10:12:20.433Z,14.35
2023-04-02T10:15:14.377Z,14.44
2023-04-02T10:18:13.483Z,14.34
2023-04-02T10:21:03.413Z,14.40
2023-04-02T10:23:50.082Z,14.14
2023-04-02T10:26:48.436Z,14.40
2023-04-02T10:30:02.580Z,14.57
2023-04-02T10:33:06.046Z,14.54
2023-04-02T10:36:17.750Z,14.49
2023-04-02T10:39:15.925Z,14.74
2023-04-02T10:42:18.984Z,14.95
2023-04-02T10:45:18.733Z,15.09
2023-04-02T10:48:24.463Z,14.73
2023-04-02T10:51:25.155Z,14.72
2023-04-02T10:54:37.925Z,14.87
2023-04-02T10:57:33.683Z,14.70
2023-04-02T11:00:34.999Z,14.69
2023-04-02T11:03:54.892Z,14.73
2023-04-02T11:06:48.953Z,14.84
2023-04-02T11:09:41.341Z,14.86
2023-04-02T11:12:34.018Z,14.82
2023-04-02T11:15:22.320Z,14.82
2023-04-02T11:18:29.189Z,14.92
2023-04-02T11:21:58.537Z,14.69
2023-04-02T11:24:55.104Z,14.76
2023-04-02T11:27:42.663Z,14.14
2023-04-02T11:30:30.258Z,14.45
2023-04-02T11:33:44.233Z,14.83
2023-04-02T11:36:50.136Z,15.39
2023-04-02T11:39:59.219Z,15.44
2023-04-02T11:42:46.600Z,15.62
2023-04-02T11:45:52.995Z,15.64
2023-04-02T11:48:40.885Z,15.82
2023-04-02T11:51:30.842Z,15.64
2023-04-02T11:54:28.517Z,15.16
2023-04-02T11:57:33.694Z,15.65
2023-04-02T12:00:31.808Z,15.64
2023-04-02T12:03:29.804Z,14.92
2023-04-02T12:06:52.441Z,14.51
2023-04-02T12:09:44.750Z,13.78
2023-04-02T12:12:39.091Z,13.46
2023-04-02T12:15:45.347Z,13.50
2023-04-02T12:18:33.266Z,13.04
2023-04-02T12:21:25.812Z,13.18
2023-04-02T12:24:19.648Z,12.62
2023-04-02T12:27:27.555Z,12.44
2023-04-02T12:30:20.840Z,12.21
2023-04-02T12:33:19.665Z,12.38
2023-04-02T12:36:18.077Z,12.30
2023-04-02T12:39:04.678Z,11.95
2023-04-02T12:41:51.359Z,12.00
2023-04-02T12:44:38.027Z,11.91
2023-04-02T12:47:25.246Z,12.17
2023-04-02T12:50:15.434Z,12.12
2023-04-02T12:53:02.086Z,11.77
2023-04-02T12:55:51.523Z,11.23
2023-04-02T12:58:41.440Z,10.71
2023-04-02T13:01:31.536Z,10.52
2023-04-02T13:04:18.478Z,10.06
2023-04-02T13:07:05.201Z,9.83
2023-04-02T13:09:54.427Z,9.48
2023-04-02T13:12:41.577Z,9.29
2023-04-02T13:15:31.531Z,9.19
2023-04-02T13:18:23.003Z,9.09
2023-04-02T13:21:24.046Z,9.05
2023-04-02T13:24:21.547Z,8.93
2023-04-02T13:27:10.628Z,8.89
2023-04-02T13:30:08.243Z,8.61
2023-04-02T13:32:55.103Z,8.81
2023-04-02T13:35:42.402Z,8.68
2023-04-02T13:38:28.966Z,8.65
2023-04-02T13:41:26.301Z,8.55
2023-04-02T13:44:27.636Z,8.45
2023-04-02T13:47:14.803Z,8.52
2023-04-02T13:50:01.413Z,8.43
2023-04-02T13:52:50.667Z,8.50
2023-04-02T13:55:40.622Z,7.97
2023-04-02T13:58:27.079Z,8.48
2023-04-02T14:01:14.391Z,8.45
2023-04-02T14:04:02.418Z,8.35
2023-04-02T14:07:07.849Z,8.41
2023-04-02T14:10:04.311Z,8.41
2023-04-02T14:13:18.510Z,8.17
2023-04-02T14:16:32.379Z,8.10
2023-04-02T14:19:54.174Z,8.18
2023-04-02T14:22:59.224Z,8.18
2023-04-02T14:25:54.804Z,8.17
2023-04-02T14:28:47.405Z,8.26
2023-04-02T14:31:38.752Z,8.27
2023-04-02T14:34:36.203Z,8.25
2023-04-02T14:37:32.615Z,8.23
2023-04-02T14:40:40.077Z,8.20
2023-04-02T14:43:32.603Z,8.11
2023-04-02T14:46:19.180Z,8.29
2023-04-02T14:49:16.623Z,8.50
2023-04-02T14:52:05.038Z,8.35
2023-04-02T14:55:04.261Z,8.36
2023-04-02T14:57:54.610Z,8.29
2023-04-02T15:01:07.970Z,8.41
2023-04-02T15:04:02.382Z,8.41
2023-04-02T15:06:52.756Z,8.49
2023-04-02T15:09:44.988Z,8.43
2023-04-02T15:12:36.106Z,8.43
2023-04-02T15:15:40.624Z,8.27
2023-04-02T15:18:30.317Z,8.18
2023-04-02T15:21:29.743Z,8.20
2023-04-02T15:24:26.069Z,8.28
2023-04-02T15:27:37.677Z,8.06
2023-04-02T15:30:35.382Z,8.15
2023-04-02T15:33:28.252Z,8.08
2023-04-02T15:36:29.639Z,7.99
2023-04-02T15:39:28.134Z,8.00
2023-04-02T15:42:19.896Z,8.11
2023-04-02T15:45:12.443Z,8.05
2023-04-02T15:48:15.709Z,8.18
2023-04-02T15:51:05.066Z,8.09
2023-04-02T15:54:26.968Z,7.91
2023-04-02T15:57:51.281Z,7.88
2023-04-02T16:01:11.568Z,7.88
2023-04-02T16:04:19.919Z,7.90
2023-04-02T16:07:24.033Z,7.70
2023-04-02T16:10:30.314Z,7.89
2023-04-02T16:13:30.868Z,7.93
2023-04-02T16:16:33.935Z,7.89
2023-04-02T16:19:33.069Z,7.70
2023-04-02T16:22:33.245Z,7.70
2023-04-02T16:25:23.872Z,7.80
2023-04-02T16:28:28.349Z,7.84
2023-04-02T16:31:41.502Z,7.84
2023-04-02T16:34:38.718Z,7.79
2023-04-02T16:37:52.576Z,7.66
2023-04-02T16:41:08.765Z,7.84
2023-04-02T16:44:07.622Z,7.63
2023-04-02T16:47:02.966Z,7.60
2023-04-02T16:50:24.313Z,7.36
2023-04-02T16:53:24.530Z,7.41
2023-04-02T16:56:23.288Z,7.37
2023-04-02T16:59:19.387Z,7.26
2023-04-02T17:02:45.553Z,7.17
2023-04-02T17:05:50.629Z,7.05
2023-04-02T17:08:43.139Z,7.02
2023-04-02T17:11:42.801Z,7.08
2023-04-02T17:15:01.379Z,6.94
2023-04-02T17:17:47.730Z,6.94
2023-04-02T17:20:34.565Z,6.86
2023-04-02T17:23:21.136Z,6.84
2023-04-02T17:26:09.229Z,6.74
2023-04-02T17:28:58.902Z,6.65
2023-04-02T17:31:46.407Z,6.69
2023-04-02T17:34:33.084Z,6.67
2023-04-02T17:37:44.339Z,6.65
2023-04-02T17:40:47.977Z,6.60
2023-04-02T17:44:05.879Z,6.49
2023-04-02T17:47:19.450Z,6.51
2023-04-02T17:50:12.406Z,6.37
2023-04-02T17:53:08.293Z,6.28
2023-04-02T17:56:23.699Z,6.24
2023-04-02T17:59:23.606Z,6.28
2023-04-02T18:02:38.914Z,6.23
2023-04-02T18:05:35.361Z,6.15
2023-04-02T18:08:36.329Z,6.12
2023-04-02T18:11:26.288Z,6.10
2023-04-02T18:14:43.588Z,6.07
2023-04-02T18:17:46.051Z,5.89
2023-04-02T18:20:43.208Z,5.91
2023-04-02T18:23:56.606Z,5.78
2023-04-02T18:26:55.418Z,5.68
2023-04-02T18:29:57.594Z,5.67
2023-04-02T18:33:28.576Z,5.51
2023-04-02T18:36:33.513Z,5.31
2023-04-02T18:39:43.437Z,5.21
2023-04-02T18:42:48.206Z,5.16
2023-04-02T18:45:53.191Z,5.11
2023-04-02T18:49:06.387Z,5.00
2023-04-02T18:51:58.788Z,4.98
2023-04-02T18:54:53.485Z,4.98
2023-04-02T18:57:42.277Z,4.85
2023-04-02T19:00:33.669Z,4.85
2023-04-02T19:03:29.044Z,4.94
2023-04-02T19:06:21.151Z,4.81
2023-04-02T19:09:25.414Z,4.78
2023-04-02T19:12:18.985Z,4.75
2023-04-02T19:15:16.378Z,4.77
2023-04-02T19:18:17.996Z,4.59
2023-04-02T19:21:19.065Z,4.58
2023-04-02T19:24:17.638Z,4.56
2023-04-02T19:27:22.352Z,4.48
2023-04-02T19:30:43.071Z,4.42
2023-04-02T19:33:48.412Z,4.40
2023-04-02T19:36:56.176Z,4.30
2023-04-02T19:40:19.544Z,4.29
2023-04-02T19:43:08.576Z,4.25
2023-04-02T19:45:55.522Z,4.17
2023-04-02T19:49:03.504Z,4.13
2023-04-02T19:51:50.796Z,4.16
2023-04-02T19:54:38.328Z,4.09
2023-04-02T19:57:24.889Z,4.11
2023-04-02T20:00:14.108Z,4.04
2023-04-02T20:03:00.828Z,4.09
2023-04-02T20:05:47.884Z,3.96
2023-04-02T20:08:36.275Z,4.00
2023-04-02T20:11:22.672Z,4.04
2023-04-02T20:14:08.979Z,3.96
2023-04-02T20:16:55.701Z,3.97
2023-04-02T20:19:42.003Z,3.97
2023-04-02T20:22:28.349Z,3.98
2023-04-02T20:25:15.006Z,3.92
2023-04-02T20:28:03.742Z,3.90
2023-04-02T20:30:51.107Z,3.92
2023-04-02T20:33:38.012Z,3.90
2023-04-02T20:36:24.888Z,3.95
2023-04-02T20:39:17.804Z,3.96
2023-04-02T20:42:04.236Z,3.96
2023-04-02T20:44:50.811Z,3.93
2023-04-02T20:47:37.141Z,3.97
2023-04-02T20:50:24.024Z,3.94
2023-04-02T20:53:10.549Z,3.94
2023-04-02T20:56:15.710Z,3.92
2023-04-02T20:59:02.066Z,3.98
2023-04-02T21:01:48.614Z,3.88
2023-04-02T21:04:35.182Z,3.97
2023-04-02T21:07:21.471Z,3.77
2023-04-02T21:10:08.010Z,3.82
2023-04-02T21:12:54.493Z,3.87
2023-04-02T21:15:43.177Z,3.87
2023-04-02T21:18:30.030Z,3.84
2023-04-02T21:21:17.831Z,3.75
2023-04-02T21:24:06.644Z,3.85
2023-04-02T21:26:52.961Z,3.85
2023-04-02T21:29:39.181Z,3.69
2023-04-02T21:32:27.212Z,3.72
2023-04-02T21:35:13.827Z,3.66
2023-04-02T21:38:00.093Z,3.66
2023-04-02T21:40:46.591Z,3.76
2023-04-02T21:43:33.128Z,3.70
2023-04-02T21:46:22.110Z,3.72
2023-04-02T21:49:10.618Z,3.71
2023-04-02T21:51:57.303Z,3.60
2023-04-02T21:54:43.790Z,3.60
2023-04-02T21:57:30.342Z,3.71
2023-04-02T22:00:17.505Z,3.72
2023-04-02T22:03:04.283Z,3.70
2023-04-02T22:06:00.910Z,3.68
2023-04-02T22:08:54.650Z,3.70
2023-04-02T22:11:47.630Z,3.60
2023-04-02T22:14:34.282Z,3.70
2023-04-02T22:17:21.824Z,3.69
2023-04-02T22:20:09.153Z,3.72
2023-04-02T22:22:56.516Z,3.65
2023-04-02T22:25:43.172Z,3.60
2023-04-02T22:28:29.749Z,3.64
2023-04-02T22:31:19.743Z,3.67
2023-04-02T22:34:07.414Z,3.63
2023-04-02T22:36:53.683Z,3.67
2023-04-02T22:39:40.014Z,3.58
2023-04-02T22:42:27.360Z,3.60
2023-04-02T22:45:15.652Z,3.61
2023-04-02T22:48:02.169Z,3.59
2023-04-02T22:50:55.362Z,3.64
2023-04-02T22:53:42.943Z,3.58
2023-04-02T22:56:32.139Z,3.51
2023-04-02T22:59:19.082Z,3.62
2023-04-02T23:02:05.817Z,3.58
2023-04-02T23:04:52.384Z,3.57
2023-04-02T23:07:38.509Z,3.51
2023-04-02T23:10:29.001Z,3.57
2023-04-02T23:13:20.002Z,3.58
2023-04-02T23:16:09.992Z,3.57
2023-04-02T23:18:57.275Z,3.49
2023-04-02T23:21:45.821Z,3.60
2023-04-02T23:24:32.408Z,3.57
2023-04-02T23:27:18.968Z,3.54
2023-04-02T23:30:06.510Z,3.53
2023-04-02T23:32:53.079Z,3.55
2023-04-02T23:35:39.502Z,3.39
2023-04-02T23:38:27.294Z,3.43
2023-04-02T23:41:15.341Z,3.38
2023-04-02T23:44:02.026Z,3.36
2023-04-02T23:46:48.521Z,3.21
2023-04-02T23:49:34.748Z,3.27
2023-04-02T23:52:24.107Z,3.36
2023-04-02T23:55:12.133Z,3.27
2023-04-02T23:57:58.413Z,3.39
